createdAt,value
2019-03-29T00:00:32.063Z,77.32
2019-03-29T00:03:04.464Z,77.64
2019-03-29T00:05:36.544Z,77.67
2019-03-29T00:08:09.572Z,78.77
2019-03-29T00:10:42.369Z,78.17
2019-03-29T00:13:14.847Z,79.15
2019-03-29T00:15:48.114Z,80.20
2019-03-29T00:18:20.663Z,80.67
2019-03-29T00:20:52.717Z,79.90
2019-03-29T00:23:25.237Z,78.83
2019-03-29T00:25:57.314Z,78.10
2019-03-29T00:28:29.966Z,77.38
2019-03-29T00:31:02.054Z,78.64
2019-03-29T00:33:34.118Z,78.75
2019-03-29T00:36:06.164Z,77.57
2019-03-29T00:38:38.609Z,78.72
2019-03-29T00:41:10.657Z,77.70
2019-03-29T00:43:42.712Z,80.46
2019-03-29T00:46:14.858Z,79.48
2019-03-29T00:48:47.428Z,79.12
2019-03-29T00:51:20.293Z,79.12
2019-03-29T00:53:52.354Z,79.48
2019-03-29T00:56:25.237Z,79.32
2019-03-29T00:58:57.384Z,80.62
2019-03-29T01:01:29.876Z,81.96
2019-03-29T01:04:02.964Z,83.01
2019-03-29T01:06:35.215Z,83.01
2019-03-29T01:09:08.994Z,82.58
2019-03-29T01:11:41.612Z,82.89
2019-03-29T01:14:13.731Z,82.16
2019-03-29T01:16:45.805Z,82.51
2019-03-29T01:19:19.152Z,81.01
2019-03-29T01:21:51.193Z,80.53
2019-03-29T01:24:24.077Z,79.80
2019-03-29T01:26:56.826Z,80.65
2019-03-29T01:29:28.865Z,81.37
2019-03-29T01:32:00.983Z,81.28
2019-03-29T01:34:33.063Z,80.34
2019-03-29T01:37:05.137Z,81.51
2019-03-29T01:39:37.589Z,81.25
2019-03-29T01:42:10.043Z,82.46
2019-03-29T01:44:42.638Z,81.71
2019-03-29T01:47:15.247Z,81.94
2019-03-29T01:49:48.013Z,81.90
2019-03-29T01:52:20.273Z,82.32
2019-03-29T01:54:52.848Z,83.01
2019-03-29T01:57:24.892Z,82.37
2019-03-29T01:59:56.914Z,83.04
2019-03-29T02:02:29.049Z,82.76
2019-03-29T02:05:01.596Z,82.87
2019-03-29T02:07:33.670Z,83.10
2019-03-29T02:10:08.393Z,83.50
2019-03-29T02:12:40.447Z,83.42
2019-03-29T02:15:12.848Z,83.46
2019-03-29T02:17:44.935Z,82.75
2019-03-29T02:20:17.220Z,81.49
2019-03-29T02:22:49.247Z,80.20
2019-03-29T02:25:21.416Z,80.44
2019-03-29T02:27:53.463Z,82.31
2019-03-29T02:30:25.520Z,82.63
2019-03-29T02:32:57.740Z,82.24
2019-03-29T02:35:29.799Z,82.61
2019-03-29T02:38:01.835Z,82.73
2019-03-29T02:40:33.994Z,83.18
2019-03-29T02:43:06.486Z,82.36
2019-03-29T02:45:38.544Z,83.04
2019-03-29T02:48:11.610Z,81.82
2019-03-29T02:50:43.679Z,81.21
2019-03-29T02:53:16.484Z,80.65
2019-03-29T02:55:49.414Z,83.26
2019-03-29T02:58:21.801Z,83.74
2019-03-29T03:00:54.159Z,83.76
2019-03-29T03:03:26.599Z,83.76
2019-03-29T03:05:58.975Z,83.79
2019-03-29T03:08:33.179Z,83.40
2019-03-29T03:11:06.507Z,82.22
2019-03-29T03:13:38.574Z,82.29
2019-03-29T03:16:11.056Z,83.38
2019-03-29T03:18:43.827Z,83.67
2019-03-29T03:21:16.871Z,82.20
2019-03-29T03:23:49.592Z,81.62
2019-03-29T03:26:22.371Z,81.24
2019-03-29T03:28:54.447Z,82.83
2019-03-29T03:31:27.356Z,82.45
2019-03-29T03:34:00.308Z,80.64
2019-03-29T03:36:32.563Z,81.73
2019-03-29T03:39:08.111Z,83.73
2019-03-29T03:41:40.877Z,83.42
2019-03-29T03:44:12.923Z,82.26
2019-03-29T03:46:45.464Z,83.09
2019-03-29T03:49:17.701Z,83.73
2019-03-29T03:51:50.286Z,83.77
2019-03-29T03:54:22.522Z,83.44
2019-03-29T03:56:56.263Z,84.17
2019-03-29T03:59:31.668Z,84.20
2019-03-29T04:02:04.152Z,83.81
2019-03-29T04:04:37.881Z,83.97
2019-03-29T04:07:11.417Z,84.14
2019-03-29T04:09:49.870Z,84.10
2019-03-29T04:12:17.784Z,84.49
2019-03-29T04:14:50.682Z,84.01
2019-03-29T04:17:22.767Z,83.82
2019-03-29T04:19:55.213Z,84.31
2019-03-29T04:22:27.535Z,83.63
2019-03-29T04:24:59.966Z,83.95
2019-03-29T04:27:32.068Z,83.23
2019-03-29T04:30:05.077Z,83.94
2019-03-29T04:32:37.192Z,82.36
2019-03-29T04:35:10.330Z,83.32
2019-03-29T04:37:45.575Z,83.87
2019-03-29T04:40:18.651Z,84.08
2019-03-29T04:42:51.123Z,83.96
2019-03-29T04:45:23.251Z,83.49
2019-03-29T04:47:55.770Z,84.47
2019-03-29T04:50:27.810Z,84.39
2019-03-29T04:52:59.814Z,84.05
2019-03-29T04:55:31.784Z,84.26
2019-03-29T04:58:04.232Z,83.40
2019-03-29T05:00:36.308Z,81.41
2019-03-29T05:03:08.766Z,81.29
2019-03-29T05:05:40.905Z,84.14
2019-03-29T05:08:13.073Z,83.25
2019-03-29T05:10:45.139Z,83.46
2019-03-29T05:13:17.310Z,83.53
2019-03-29T05:15:49.290Z,83.58
2019-03-29T05:18:21.342Z,82.00
2019-03-29T05:20:53.730Z,79.82
2019-03-29T05:23:25.773Z,80.64
2019-03-29T05:25:58.951Z,81.12
2019-03-29T05:28:32.283Z,80.31
2019-03-29T05:31:04.751Z,79.71
2019-03-29T05:33:37.760Z,80.39
2019-03-29T05:36:10.211Z,80.07
2019-03-29T05:38:43.415Z,83.21
2019-03-29T05:41:15.488Z,83.50
2019-03-29T05:43:48.550Z,82.75
2019-03-29T05:46:20.926Z,81.42
2019-03-29T05:48:53.392Z,82.07
2019-03-29T05:51:25.491Z,82.29
2019-03-29T05:53:58.112Z,81.38
2019-03-29T05:56:30.531Z,79.88
2019-03-29T05:59:03.121Z,80.43
2019-03-29T06:01:35.128Z,80.30
2019-03-29T06:04:07.547Z,81.13
2019-03-29T06:06:40.036Z,82.70
2019-03-29T06:09:12.118Z,82.80
2019-03-29T06:11:44.124Z,81.88
2019-03-29T06:14:16.260Z,81.24
2019-03-29T06:16:48.302Z,81.80
2019-03-29T06:19:20.503Z,83.70
2019-03-29T06:21:52.929Z,82.79
2019-03-29T06:24:25.032Z,83.15
2019-03-29T06:26:58.002Z,82.73
2019-03-29T06:29:30.824Z,83.30
2019-03-29T06:32:03.434Z,83.43
2019-03-29T06:34:35.913Z,82.97
2019-03-29T06:37:09.854Z,83.27
2019-03-29T06:39:42.599Z,82.73
2019-03-29T06:42:15.075Z,82.56
2019-03-29T06:44:47.198Z,82.79
2019-03-29T06:47:19.708Z,82.29
2019-03-29T06:49:52.518Z,82.75
2019-03-29T06:52:25.146Z,82.47
2019-03-29T06:54:57.197Z,81.65
2019-03-29T06:57:29.293Z,81.64
2019-03-29T07:00:02.661Z,81.23
2019-03-29T07:02:34.803Z,80.90
2019-03-29T07:05:06.874Z,80.96
2019-03-29T07:07:38.969Z,81.11
2019-03-29T07:10:11.073Z,81.34
2019-03-29T07:12:43.148Z,80.74
2019-03-29T07:15:17.349Z,80.70
2019-03-29T07:17:49.398Z,80.37
2019-03-29T07:20:22.344Z,79.99
2019-03-29T07:22:54.475Z,79.63
2019-03-29T07:25:27.356Z,79.29
2019-03-29T07:27:59.377Z,79.00
2019-03-29T07:30:31.457Z,78.63
2019-03-29T07:33:03.548Z,77.72
2019-03-29T07:35:36.012Z,78.46
2019-03-29T07:38:08.519Z,77.91
2019-03-29T07:40:40.952Z,78.19
2019-03-29T07:43:13.096Z,77.12
2019-03-29T07:45:46.215Z,77.24
2019-03-29T07:48:19.217Z,77.15
2019-03-29T07:50:51.439Z,77.17
2019-03-29T07:53:24.080Z,75.62
2019-03-29T07:55:57.809Z,76.50
2019-03-29T07:58:30.394Z,75.91
2019-03-29T08:01:02.781Z,75.13
2019-03-29T08:03:35.288Z,74.42
2019-03-29T08:06:08.587Z,74.23
2019-03-29T08:08:41.067Z,74.29
2019-03-29T08:11:25.418Z,74.21
2019-03-29T08:13:47.680Z,74.16
2019-03-29T08:16:20.844Z,73.52
2019-03-29T08:18:52.865Z,73.41
2019-03-29T08:21:25.787Z,72.27
2019-03-29T08:23:58.113Z,72.51
2019-03-29T08:26:31.967Z,72.07
2019-03-29T08:29:04.047Z,71.62
2019-03-29T08:31:36.148Z,71.94
2019-03-29T08:34:08.170Z,70.67
2019-03-29T08:36:41.139Z,70.55
2019-03-29T08:39:26.970Z,70.90
2019-03-29T08:41:59.447Z,69.21
2019-03-29T08:44:22.660Z,69.20
2019-03-29T08:46:55.661Z,67.14
2019-03-29T08:49:28.505Z,67.94
2019-03-29T08:52:01.417Z,68.02
2019-03-29T08:54:34.425Z,67.30
2019-03-29T08:57:10.326Z,67.73
2019-03-29T08:59:40.584Z,64.75
2019-03-29T09:02:12.917Z,66.17
2019-03-29T09:04:45.569Z,64.71
2019-03-29T09:07:17.683Z,62.43
2019-03-29T09:09:49.893Z,64.96
2019-03-29T09:12:22.022Z,62.10
2019-03-29T09:14:54.780Z,60.07
2019-03-29T09:17:26.811Z,63.10
2019-03-29T09:19:58.904Z,59.33
2019-03-29T09:22:31.010Z,59.97
2019-03-29T09:25:03.139Z,61.10
2019-03-29T09:27:35.242Z,56.14
2019-03-29T09:30:07.760Z,54.58
2019-03-29T09:32:39.837Z,55.49
2019-03-29T09:35:12.010Z,55.42
2019-03-29T09:37:44.041Z,55.13
2019-03-29T09:40:16.674Z,53.07
2019-03-29T09:42:52.179Z,54.39
2019-03-29T09:45:23.185Z,54.28
2019-03-29T09:47:56.042Z,53.46
2019-03-29T09:50:28.298Z,53.02
2019-03-29T09:53:01.372Z,53.07
2019-03-29T09:55:34.619Z,53.26
2019-03-29T09:58:06.708Z,54.98
2019-03-29T10:00:38.783Z,51.47
2019-03-29T10:03:11.340Z,51.23
2019-03-29T10:05:43.402Z,52.03
2019-03-29T10:08:15.469Z,50.82
2019-03-29T10:10:47.672Z,51.54
2019-03-29T10:13:19.783Z,47.85
2019-03-29T10:15:52.568Z,50.89
2019-03-29T10:18:24.657Z,52.11
2019-03-29T10:20:56.762Z,48.00
2019-03-29T10:23:28.828Z,47.38
2019-03-29T10:26:01.840Z,48.56
2019-03-29T10:28:33.892Z,49.31
2019-03-29T10:31:06.456Z,48.89
2019-03-29T10:33:38.520Z,50.80
2019-03-29T10:36:10.564Z,54.00
2019-03-29T10:38:42.705Z,49.31
2019-03-29T10:41:15.196Z,50.98
2019-03-29T10:43:47.259Z,48.20
2019-03-29T10:46:19.995Z,47.08
2019-03-29T10:48:52.868Z,47.97
2019-03-29T10:51:24.882Z,50.13
2019-03-29T10:53:57.909Z,46.58
2019-03-29T10:56:34.506Z,46.68
2019-03-29T10:59:05.339Z,47.32
2019-03-29T11:01:37.395Z,45.03
2019-03-29T11:04:09.505Z,47.79
2019-03-29T11:06:41.567Z,41.48
2019-03-29T11:09:14.125Z,41.21
2019-03-29T11:11:46.229Z,42.61
2019-03-29T11:14:18.886Z,43.19
2019-03-29T11:16:50.914Z,43.27
2019-03-29T11:19:23.142Z,41.40
2019-03-29T11:21:55.256Z,41.75
2019-03-29T11:24:28.210Z,41.39
2019-03-29T11:27:00.271Z,40.72
2019-03-29T11:29:34.632Z,41.08
2019-03-29T11:32:07.683Z,44.26
2019-03-29T11:34:40.209Z,42.31
2019-03-29T11:37:12.478Z,41.42
2019-03-29T11:39:44.513Z,41.93
2019-03-29T11:42:17.478Z,39.15
2019-03-29T11:44:50.416Z,41.99
2019-03-29T11:47:23.361Z,42.11
2019-03-29T11:49:55.442Z,40.61
2019-03-29T11:52:27.671Z,39.61
2019-03-29T11:55:00.380Z,40.69
2019-03-29T11:57:32.514Z,41.01
2019-03-29T12:00:04.603Z,40.06
2019-03-29T12:02:36.695Z,45.86
2019-03-29T12:05:08.980Z,44.17
2019-03-29T12:07:41.954Z,40.04
2019-03-29T12:10:14.553Z,34.18
2019-03-29T12:12:46.655Z,39.15
2019-03-29T12:15:19.211Z,36.29
2019-03-29T12:17:51.252Z,37.73
2019-03-29T12:20:23.415Z,37.73
2019-03-29T12:22:55.975Z,38.61
2019-03-29T12:25:28.623Z,34.90
2019-03-29T12:28:01.488Z,39.07
2019-03-29T12:30:34.157Z,40.58
2019-03-29T12:33:06.246Z,44.77
2019-03-29T12:35:38.380Z,45.10
2019-03-29T12:38:10.444Z,42.76
2019-03-29T12:40:45.050Z,33.22
2019-03-29T12:43:16.275Z,36.87
2019-03-29T12:45:50.083Z,36.93
2019-03-29T12:48:22.216Z,39.40
2019-03-29T12:50:54.756Z,39.35
2019-03-29T12:53:26.854Z,43.02
2019-03-29T12:55:59.112Z,42.28
2019-03-29T12:58:31.242Z,36.28
2019-03-29T13:01:03.352Z,39.33
2019-03-29T13:03:35.414Z,33.13
2019-03-29T13:06:07.618Z,38.96
2019-03-29T13:08:40.762Z,39.27
2019-03-29T13:11:12.989Z,41.64
2019-03-29T13:13:45.138Z,39.25
2019-03-29T13:16:17.199Z,44.32
2019-03-29T13:18:53.472Z,38.40
2019-03-29T13:25:12.631Z,44.21
2019-03-29T13:27:45.893Z,42.84
2019-03-29T13:30:19.231Z,38.35
2019-03-29T13:32:51.348Z,37.56
2019-03-29T13:35:24.616Z,42.08
2019-03-29T13:37:57.928Z,43.65
2019-03-29T13:40:30.815Z,40.97
2019-03-29T13:43:03.288Z,43.71
2019-03-29T13:45:35.333Z,34.95
2019-03-29T13:48:07.444Z,32.80
2019-03-29T13:50:39.518Z,36.26
2019-03-29T13:53:11.615Z,40.50
2019-03-29T13:55:43.778Z,39.58
2019-03-29T13:58:16.571Z,37.68
2019-03-29T14:00:49.081Z,37.69
2019-03-29T14:03:21.707Z,40.00
2019-03-29T14:05:54.193Z,40.75
2019-03-29T14:08:26.750Z,41.30
2019-03-29T14:10:59.795Z,41.65
2019-03-29T14:13:32.271Z,41.05
2019-03-29T14:16:04.696Z,41.48
2019-03-29T14:18:36.816Z,45.53
2019-03-29T14:21:09.230Z,39.14
2019-03-29T14:23:41.344Z,42.30
2019-03-29T14:26:16.156Z,40.84
2019-03-29T14:28:48.039Z,36.69
2019-03-29T14:31:20.760Z,37.08
2019-03-29T14:33:53.262Z,38.81
2019-03-29T14:36:25.754Z,40.88
2019-03-29T14:38:57.826Z,45.19
2019-03-29T14:41:29.930Z,40.05
2019-03-29T14:44:02.143Z,45.46
2019-03-29T14:46:34.242Z,39.33
2019-03-29T14:49:06.375Z,39.38
2019-03-29T14:51:38.436Z,42.90
2019-03-29T14:54:10.530Z,39.69
2019-03-29T14:56:42.729Z,40.52
2019-03-29T14:59:14.843Z,41.71
2019-03-29T15:01:47.194Z,39.92
2019-03-29T15:04:19.273Z,45.28
2019-03-29T15:06:51.809Z,40.63
2019-03-29T15:09:23.875Z,41.50
2019-03-29T15:11:56.344Z,42.32
2019-03-29T15:14:28.941Z,44.37
2019-03-29T15:17:01.462Z,47.85
2019-03-29T15:19:33.574Z,42.95
2019-03-29T15:22:06.126Z,43.36
2019-03-29T15:24:38.167Z,46.37
2019-03-29T15:27:10.295Z,43.93
2019-03-29T15:29:42.374Z,43.34
2019-03-29T15:32:14.446Z,43.79
2019-03-29T15:34:46.525Z,44.14
2019-03-29T15:37:18.628Z,44.50
2019-03-29T15:39:51.806Z,44.57
2019-03-29T15:42:23.926Z,47.32
2019-03-29T15:44:55.976Z,48.03
2019-03-29T15:47:28.042Z,47.94
2019-03-29T15:50:00.978Z,46.12
2019-03-29T15:52:33.450Z,43.49
2019-03-29T15:55:05.667Z,45.25
2019-03-29T15:57:38.050Z,45.41
2019-03-29T16:00:11.557Z,49.27
2019-03-29T16:02:43.616Z,50.72
2019-03-29T16:05:16.325Z,44.83
2019-03-29T16:07:48.832Z,46.59
2019-03-29T16:10:21.029Z,52.92
2019-03-29T16:12:53.577Z,48.26
2019-03-29T16:15:35.028Z,48.26
2019-03-29T16:17:59.322Z,51.05
2019-03-29T16:20:31.478Z,48.33
2019-03-29T16:23:03.606Z,47.59
2019-03-29T16:25:35.652Z,51.04
2019-03-29T16:28:08.511Z,46.18
2019-03-29T16:30:40.591Z,47.18
2019-03-29T16:33:12.722Z,47.89
2019-03-29T16:35:44.820Z,48.07
2019-03-29T16:38:16.878Z,48.87
2019-03-29T16:40:49.372Z,49.29
2019-03-29T16:43:21.474Z,48.68
2019-03-29T16:45:53.563Z,49.19
2019-03-29T16:48:25.619Z,49.21
2019-03-29T16:50:58.229Z,50.27
2019-03-29T16:53:30.276Z,52.65
2019-03-29T16:56:02.802Z,51.15
2019-03-29T16:58:35.344Z,49.55
2019-03-29T17:01:07.421Z,50.73
2019-03-29T17:03:39.928Z,51.25
2019-03-29T17:06:12.025Z,52.16
2019-03-29T17:08:44.078Z,52.08
2019-03-29T17:11:16.242Z,52.46
2019-03-29T17:13:49.046Z,52.38
2019-03-29T17:16:30.133Z,54.92
2019-03-29T17:18:55.415Z,53.34
2019-03-29T17:21:27.572Z,53.55
2019-03-29T17:24:00.296Z,54.13
2019-03-29T17:26:32.353Z,53.47
2019-03-29T17:29:04.580Z,54.48
2019-03-29T17:31:37.092Z,53.49
2019-03-29T17:34:09.889Z,54.07
2019-03-29T17:36:41.940Z,54.52
2019-03-29T17:39:13.997Z,54.67
2019-03-29T17:41:46.085Z,55.14
2019-03-29T17:44:18.187Z,54.80
2019-03-29T17:46:50.614Z,55.47
2019-03-29T17:49:22.672Z,55.68
2019-03-29T17:51:54.718Z,55.84
2019-03-29T17:54:26.885Z,55.56
2019-03-29T17:56:59.379Z,55.86
2019-03-29T17:59:31.498Z,56.50
2019-03-29T18:02:09.509Z,56.69
2019-03-29T18:04:37.400Z,56.74
2019-03-29T18:07:09.465Z,57.39
2019-03-29T18:09:41.505Z,60.17
2019-03-29T18:12:14.029Z,57.59
2019-03-29T18:14:46.217Z,58.38
2019-03-29T18:17:18.846Z,58.52
2019-03-29T18:19:51.358Z,58.44
2019-03-29T18:22:24.663Z,58.21
2019-03-29T18:24:56.739Z,58.45
2019-03-29T18:27:28.760Z,58.56
2019-03-29T18:30:01.673Z,58.39
2019-03-29T18:32:35.156Z,58.54
2019-03-29T18:35:07.936Z,58.63
2019-03-29T18:37:41.114Z,58.87
2019-03-29T18:40:27.362Z,58.87
2019-03-29T18:42:59.403Z,59.22
2019-03-29T18:45:31.488Z,59.53
2019-03-29T18:48:04.035Z,60.57
2019-03-29T18:50:36.505Z,60.57
2019-03-29T18:53:09.086Z,61.42
2019-03-29T18:55:42.103Z,62.79
2019-03-29T18:58:14.576Z,62.83
2019-03-29T19:00:46.616Z,63.87
2019-03-29T19:03:18.802Z,64.19
2019-03-29T19:05:51.753Z,63.61
2019-03-29T19:08:23.888Z,63.68
2019-03-29T19:10:56.490Z,64.05
2019-03-29T19:13:28.974Z,64.23
2019-03-29T19:16:01.127Z,65.15
2019-03-29T19:18:33.776Z,65.30
2019-03-29T19:21:05.865Z,64.93
2019-03-29T19:23:37.950Z,65.37
2019-03-29T19:26:10.014Z,65.92
2019-03-29T19:28:42.068Z,66.54
2019-03-29T19:31:15.012Z,66.71
2019-03-29T19:33:47.074Z,66.38
2019-03-29T19:36:19.221Z,67.18
2019-03-29T19:38:51.310Z,67.14
2019-03-29T19:41:23.985Z,66.98
2019-03-29T19:43:56.830Z,66.09
2019-03-29T19:46:28.973Z,67.11
2019-03-29T19:49:01.067Z,67.27
2019-03-29T19:51:33.691Z,67.11
2019-03-29T19:54:07.866Z,67.70
2019-03-29T19:56:40.944Z,67.72
2019-03-29T19:59:12.964Z,67.70
2019-03-29T20:01:45.584Z,67.07
2019-03-29T20:04:17.950Z,67.71
2019-03-29T20:06:49.952Z,67.85
2019-03-29T20:09:23.021Z,67.86
2019-03-29T20:11:56.951Z,68.43
2019-03-29T20:14:29.395Z,68.89
2019-03-29T20:17:01.482Z,69.05
2019-03-29T20:19:34.447Z,69.51
2019-03-29T20:22:06.719Z,69.45
2019-03-29T20:24:39.907Z,69.43
2019-03-29T20:27:12.528Z,69.75
2019-03-29T20:29:44.995Z,68.82
2019-03-29T20:32:17.551Z,69.46
2019-03-29T20:34:49.601Z,69.25
2019-03-29T20:37:22.221Z,69.12
2019-03-29T20:39:54.753Z,69.37
2019-03-29T20:42:27.534Z,70.21
2019-03-29T20:45:00.007Z,70.69
2019-03-29T20:47:41.904Z,70.74
2019-03-29T20:50:06.227Z,71.01
2019-03-29T20:52:38.303Z,71.12
2019-03-29T20:55:11.085Z,71.09
2019-03-29T20:57:43.584Z,71.04
2019-03-29T21:00:17.404Z,71.31
2019-03-29T21:02:50.409Z,71.74
2019-03-29T21:05:22.980Z,71.79
2019-03-29T21:07:55.355Z,71.55
2019-03-29T21:10:27.420Z,71.21
2019-03-29T21:13:00.327Z,71.02
2019-03-29T21:15:33.014Z,71.09
2019-03-29T21:18:05.163Z,70.92
2019-03-29T21:20:37.223Z,70.91
2019-03-29T21:23:09.274Z,70.85
2019-03-29T21:25:41.862Z,71.08
2019-03-29T21:28:13.951Z,71.09
2019-03-29T21:30:46.487Z,71.10
2019-03-29T21:33:19.009Z,71.43
2019-03-29T21:35:51.099Z,71.68
2019-03-29T21:38:23.935Z,71.62
2019-03-29T21:40:56.064Z,71.74
2019-03-29T21:43:28.480Z,71.80
2019-03-29T21:46:00.619Z,71.94
2019-03-29T21:48:32.733Z,71.88
2019-03-29T21:51:05.245Z,71.70
2019-03-29T21:53:37.308Z,71.88
2019-03-29T21:56:09.479Z,72.03
2019-03-29T21:58:41.927Z,72.12
2019-03-29T22:01:13.991Z,72.32
2019-03-29T22:03:46.467Z,72.50
2019-03-29T22:06:18.700Z,72.19
2019-03-29T22:08:51.156Z,72.70
2019-03-29T22:11:23.432Z,72.69
2019-03-29T22:13:55.689Z,72.76
2019-03-29T22:16:27.701Z,72.74
2019-03-29T22:19:00.221Z,72.91
2019-03-29T22:21:33.809Z,72.90
2019-03-29T22:24:06.812Z,73.21
2019-03-29T22:26:38.951Z,74.11
2019-03-29T22:29:11.049Z,74.40
2019-03-29T22:31:43.109Z,74.29
2019-03-29T22:34:16.075Z,74.57
2019-03-29T22:36:48.124Z,74.37
2019-03-29T22:39:20.782Z,74.00
2019-03-29T22:41:53.631Z,74.09
2019-03-29T22:44:25.732Z,74.13
2019-03-29T22:46:57.793Z,73.92
2019-03-29T22:49:30.175Z,73.91
2019-03-29T22:52:03.114Z,74.38
2019-03-29T22:54:36.039Z,74.17
2019-03-29T22:57:08.091Z,74.23
2019-03-29T22:59:40.137Z,74.42
2019-03-29T23:02:12.404Z,75.78
2019-03-29T23:04:45.036Z,76.01
2019-03-29T23:07:18.408Z,75.47
2019-03-29T23:09:50.845Z,74.95
2019-03-29T23:12:23.512Z,74.91
2019-03-29T23:14:55.623Z,74.90
2019-03-29T23:17:28.072Z,75.04
2019-03-29T23:20:00.360Z,74.74
2019-03-29T23:22:32.725Z,74.91
2019-03-29T23:25:05.211Z,74.85
2019-03-29T23:27:37.404Z,74.90
2019-03-29T23:30:10.635Z,75.09
2019-03-29T23:32:42.688Z,75.05
2019-03-29T23:35:14.838Z,75.86
2019-03-29T23:37:47.334Z,75.29
2019-03-29T23:40:19.445Z,75.44
2019-03-29T23:42:51.674Z,75.27
2019-03-29T23:45:23.769Z,75.15
2019-03-29T23:47:55.847Z,75.61
2019-03-29T23:50:27.921Z,75.68
2019-03-29T23:53:00.524Z,75.96
2019-03-29T23:55:32.915Z,75.88
2019-03-29T23:58:05.018Z,76.29
